sensor_id;sensor_type;location;lat;lon;timestamp;temperature;humidity
5956;DHT22;3004;48.080;11.600;2022-10-16T00:00:11;10.40;99.90
5956;DHT22;3004;48.080;11.600;2022-10-16T00:02:43;10.40;99.90
5956;DHT22;3004;48.080;11.600;2022-10-16T00:05:37;10.40;99.90
5956;DHT22;3004;48.080;11.600;2022-10-16T00:08:14;10.30;99.90
5956;DHT22;3004;48.080;11.600;2022-10-16T00:11:09;10.40;99.90
5956;DHT22;3004;48.080;11.600;2022-10-16T00:13:49;10.40;99.90
5956;DHT22;3004;48.080;11.600;2022-10-16T00:16:18;10.30;99.90
5956;DHT22;3004;48.080;11.600;2022-10-16T00:19:09;10.30;99.90
5956;DHT22;3004;48.080;11.600;2022-10-16T00:21:45;10.30;99.90
5956;DHT22;3004;48.080;11.600;2022-10-16T00:24:15;10.30;99.90
5956;DHT22;3004;48.080;11.600;2022-10-16T00:26:49;10.20;99.90
5956;DHT22;3004;48.080;11.600;2022-10-16T00:29:34;10.20;99.90
5956;DHT22;3004;48.080;11.600;2022-10-16T00:32:02;10.10;99.90
5956;DHT22;3004;48.080;11.600;2022-10-16T00:34:40;10.10;99.90
5956;DHT22;3004;48.080;11.600;2022-10-16T00:37:32;10.10;99.90
5956;DHT22;3004;48.080;11.600;2022-10-16T00:40:28;10.10;99.90
5956;DHT22;3004;48.080;11.600;2022-10-16T00:46:17;10.00;99.90
5956;DHT22;3004;48.080;11.600;2022-10-16T00:48:59;9.90;99.90
5956;DHT22;3004;48.080;11.600;2022-10-16T00:51:37;9.90;99.90
5956;DHT22;3004;48.080;11.600;2022-10-16T00:54:21;9.90;99.90
5956;DHT22;3004;48.080;11.600;2022-10-16T00:56:51;9.80;99.90
5956;DHT22;3004;48.080;11.600;2022-10-16T00:59:33;9.80;99.90
5956;DHT22;3004;48.080;11.600;2022-10-16T01:02:29;9.80;99.90
5956;DHT22;3004;48.080;11.600;2022-10-16T01:06:02;9.80;99.90
5956;DHT22;3004;48.080;11.600;2022-10-16T01:09:10;9.80;99.90
5956;DHT22;3004;48.080;11.600;2022-10-16T01:11:44;9.70;99.90
5956;DHT22;3004;48.080;11.600;2022-10-16T01:14:30;9.80;99.90
5956;DHT22;3004;48.080;11.600;2022-10-16T01:17:08;9.80;99.90
5956;DHT22;3004;48.080;11.600;2022-10-16T01:20:03;9.80;99.90
5956;DHT22;3004;48.080;11.600;2022-10-16T01:22:43;9.80;99.90
5956;DHT22;3004;48.080;11.600;2022-10-16T01:25:30;9.80;99.90
5956;DHT22;3004;48.080;11.600;2022-10-16T01:28:21;9.70;99.90
5956;DHT22;3004;48.080;11.600;2022-10-16T01:31:31;9.70;99.90
5956;DHT22;3004;48.080;11.600;2022-10-16T01:34:20;9.70;99.90
5956;DHT22;3004;48.080;11.600;2022-10-16T01:37:09;9.70;99.90
5956;DHT22;3004;48.080;11.600;2022-10-16T01:39:45;9.70;99.90
5956;DHT22;3004;48.080;11.600;2022-10-16T01:42:24;9.60;99.90
5956;DHT22;3004;48.080;11.600;2022-10-16T01:45:30;9.60;99.90
5956;DHT22;3004;48.080;11.600;2022-10-16T01:48:08;9.60;99.90
5956;DHT22;3004;48.080;11.600;2022-10-16T01:50:56;9.60;99.90
5956;DHT22;3004;48.080;11.600;2022-10-16T02:10:40;9.40;99.90
5956;DHT22;3004;48.080;11.600;2022-10-16T02:24:31;9.30;99.90
5956;DHT22;3004;48.080;11.600;2022-10-16T07:46:30;13.60;99.90
5956;DHT22;3004;48.080;11.600;2022-10-16T07:49:02;13.90;99.90
5956;DHT22;3004;48.080;11.600;2022-10-16T07:51:32;14.00;99.90
5956;DHT22;3004;48.080;11.600;2022-10-16T07:54:10;14.00;99.90
5956;DHT22;3004;48.080;11.600;2022-10-16T07:56:56;14.10;99.90
5956;DHT22;3004;48.080;11.600;2022-10-16T07:59:34;14.40;99.90
5956;DHT22;3004;48.080;11.600;2022-10-16T08:02:26;14.50;99.90
5956;DHT22;3004;48.080;11.600;2022-10-16T08:07:50;15.20;99.90
5956;DHT22;3004;48.080;11.600;2022-10-16T08:10:53;15.40;99.90
5956;DHT22;3004;48.080;11.600;2022-10-16T08:14:39;15.30;99.90
5956;DHT22;3004;48.080;11.600;2022-10-16T08:23:57;16.40;99.90
5956;DHT22;3004;48.080;11.600;2022-10-16T08:30:40;16.50;99.90
5956;DHT22;3004;48.080;11.600;2022-10-16T08:50:46;17.40;99.90
5956;DHT22;3004;48.080;11.600;2022-10-16T09:03:36;18.40;99.90
5956;DHT22;3004;48.080;11.600;2022-10-16T09:06:37;18.50;99.90
5956;DHT22;3004;48.080;11.600;2022-10-16T15:16:43;20.40;99.90
5956;DHT22;3004;48.080;11.600;2022-10-16T15:19:41;20.30;99.90
5956;DHT22;3004;48.080;11.600;2022-10-16T15:22:22;20.20;99.90
5956;DHT22;3004;48.080;11.600;2022-10-16T15:28:40;20.00;99.90
5956;DHT22;3004;48.080;11.600;2022-10-16T15:33:44;19.90;99.90
5956;DHT22;3004;48.080;11.600;2022-10-16T17:07:58;16.30;99.90
5956;DHT22;3004;48.080;11.600;2022-10-16T17:10:56;16.30;99.90
5956;DHT22;3004;48.080;11.600;2022-10-16T17:13:39;16.20;99.90
5956;DHT22;3004;48.080;11.600;2022-10-16T17:19:28;16.00;99.90
5956;DHT22;3004;48.080;11.600;2022-10-16T17:22:30;15.90;99.90
5956;DHT22;3004;48.080;11.600;2022-10-16T17:25:48;15.80;99.90
5956;DHT22;3004;48.080;11.600;2022-10-16T17:28:28;15.70;99.90
5956;DHT22;3004;48.080;11.600;2022-10-16T17:31:12;15.60;99.90
5956;DHT22;3004;48.080;11.600;2022-10-16T17:33:57;15.60;99.90
5956;DHT22;3004;48.080;11.600;2022-10-16T17:36:31;15.50;99.90
5956;DHT22;3004;48.080;11.600;2022-10-16T17:48:55;15.20;99.90
5956;DHT22;3004;48.080;11.600;2022-10-16T17:52:23;15.10;99.90
